sensor_id;sensor_type;location;lat;lon;timestamp;pressure;altitude;pressure_sealevel;temperature;humidity
64844;BME280;51310;52.198;5.422;2022-12-24T00:00:23;100243.69;;;8.92;100.00
64844;BME280;51310;52.198;5.422;2022-12-24T00:02:50;100247.78;;;8.90;100.00
64844;BME280;51310;52.198;5.422;2022-12-24T00:05:16;100247.94;;;8.91;100.00
64844;BME280;51310;52.198;5.422;2022-12-24T00:07:42;100257.81;;;9.06;100.00
64844;BME280;51310;52.198;5.422;2022-12-24T00:10:08;100262.22;;;8.98;100.00
64844;BME280;51310;52.198;5.422;2022-12-24T00:12:36;100262.81;;;9.04;100.00
64844;BME280;51310;52.198;5.422;2022-12-24T00:15:03;100267.09;;;8.95;100.00
64844;BME280;51310;52.198;5.422;2022-12-24T00:17:30;100271.91;;;8.92;100.00
64844;BME280;51310;52.198;5.422;2022-12-24T00:19:56;100282.19;;;8.92;100.00
64844;BME280;51310;52.198;5.422;2022-12-24T00:22:22;100279.09;;;9.04;100.00
64844;BME280;51310;52.198;5.422;2022-12-24T00:24:48;100276.97;;;9.09;100.00
64844;BME280;51310;52.198;5.422;2022-12-24T00:27:13;100292.41;;;9.00;100.00
64844;BME280;51310;52.198;5.422;2022-12-24T00:29:39;100297.41;;;8.99;100.00
64844;BME280;51310;52.198;5.422;2022-12-24T00:32:05;100282.75;;;8.98;100.00
64844;BME280;51310;52.198;5.422;2022-12-24T00:34:38;100289.09;;;9.01;100.00
64844;BME280;51310;52.198;5.422;2022-12-24T00:37:05;100301.50;;;8.97;100.00
64844;BME280;51310;52.198;5.422;2022-12-24T00:39:32;100299.88;;;8.89;100.00
64844;BME280;51310;52.198;5.422;2022-12-24T00:41:58;100304.06;;;8.97;100.00
64844;BME280;51310;52.198;5.422;2022-12-24T00:44:25;100302.25;;;8.96;100.00
64844;BME280;51310;52.198;5.422;2022-12-24T00:46:51;100305.13;;;8.99;100.00
64844;BME280;51310;52.198;5.422;2022-12-24T00:49:17;100316.34;;;8.82;100.00
64844;BME280;51310;52.198;5.422;2022-12-24T00:51:43;100311.66;;;8.87;100.00
64844;BME280;51310;52.198;5.422;2022-12-24T00:54:09;100314.06;;;8.85;100.00
64844;BME280;51310;52.198;5.422;2022-12-24T00:56:34;100326.19;;;8.77;100.00
64844;BME280;51310;52.198;5.422;2022-12-24T00:59:00;100323.63;;;8.77;100.00
64844;BME280;51310;52.198;5.422;2022-12-24T01:01:26;100333.88;;;8.77;100.00
64844;BME280;51310;52.198;5.422;2022-12-24T01:03:53;100341.00;;;8.71;100.00
64844;BME280;51310;52.198;5.422;2022-12-24T01:06:39;100343.72;;;8.73;100.00
64844;BME280;51310;52.198;5.422;2022-12-24T01:09:05;100351.06;;;8.78;100.00
64844;BME280;51310;52.198;5.422;2022-12-24T01:11:31;100347.03;;;8.72;100.00
64844;BME280;51310;52.198;5.422;2022-12-24T01:13:57;100362.41;;;8.72;100.00
64844;BME280;51310;52.198;5.422;2022-12-24T01:16:22;100361.19;;;8.68;100.00
64844;BME280;51310;52.198;5.422;2022-12-24T01:18:48;100370.56;;;8.68;100.00
64844;BME280;51310;52.198;5.422;2022-12-24T01:21:15;100380.22;;;8.61;100.00
64844;BME280;51310;52.198;5.422;2022-12-24T01:23:41;100378.44;;;8.69;100.00
64844;BME280;51310;52.198;5.422;2022-12-24T01:26:06;100382.81;;;8.61;100.00
64844;BME280;51310;52.198;5.422;2022-12-24T01:28:33;100389.94;;;8.55;100.00
64844;BME280;51310;52.198;5.422;2022-12-24T01:30:59;100393.41;;;8.47;100.00
64844;BME280;51310;52.198;5.422;2022-12-24T01:33:28;100387.66;;;8.41;100.00
64844;BME280;51310;52.198;5.422;2022-12-24T01:35:54;100396.06;;;8.40;100.00
64844;BME280;51310;52.198;5.422;2022-12-24T01:38:20;100400.00;;;8.36;100.00
64844;BME280;51310;52.198;5.422;2022-12-24T01:40:46;100400.00;;;8.36;100.00
64844;BME280;51310;52.198;5.422;2022-12-24T01:43:32;100403.31;;;8.35;100.00
64844;BME280;51310;52.198;5.422;2022-12-24T01:46:17;100407.09;;;8.30;100.00
64844;BME280;51310;52.198;5.422;2022-12-24T01:49:01;100406.94;;;8.20;100.00
64844;BME280;51310;52.198;5.422;2022-12-24T01:51:36;100408.16;;;8.15;100.00
64844;BME280;51310;52.198;5.422;2022-12-24T01:54:23;100411.31;;;8.12;100.00
64844;BME280;51310;52.198;5.422;2022-12-24T01:56:59;100419.47;;;8.17;100.00
64844;BME280;51310;52.198;5.422;2022-12-24T01:59:29;100419.28;;;8.07;100.00
64844;BME280;51310;52.198;5.422;2022-12-24T02:01:54;100425.03;;;8.04;100.00
64844;BME280;51310;52.198;5.422;2022-12-24T02:04:39;100420.34;;;8.00;100.00
64844;BME280;51310;52.198;5.422;2022-12-24T02:07:06;100425.31;;;7.98;100.00
64844;BME280;51310;52.198;5.422;2022-12-24T02:09:34;100433.44;;;7.94;100.00
64844;BME280;51310;52.198;5.422;2022-12-24T02:12:02;100440.69;;;7.98;100.00
64844;BME280;51310;52.198;5.422;2022-12-24T02:14:29;100440.06;;;8.01;100.00
64844;BME280;51310;52.198;5.422;2022-12-24T02:16:59;100438.72;;;7.87;100.00
64844;BME280;51310;52.198;5.422;2022-12-24T02:20:26;100450.13;;;7.73;100.00
64844;BME280;51310;52.198;5.422;2022-12-24T02:23:07;100452.50;;;7.63;100.00
64844;BME280;51310;52.198;5.422;2022-12-24T02:32:17;100464.31;;;7.36;100.00
64844;BME280;51310;52.198;5.422;2022-12-24T02:35:10;100466.25;;;7.30;100.00
64844;BME280;51310;52.198;5.422;2022-12-24T02:37:54;100470.00;;;7.34;100.00
64844;BME280;51310;52.198;5.422;2022-12-24T02:40:42;100476.19;;;7.36;100.00
64844;BME280;51310;52.198;5.422;2022-12-24T02:43:23;100482.31;;;7.29;100.00
64844;BME280;51310;52.198;5.422;2022-12-24T02:46:10;100473.44;;;7.26;100.00
64844;BME280;51310;52.198;5.422;2022-12-24T02:48:43;100467.81;;;7.21;100.00
64844;BME280;51310;52.198;5.422;2022-12-24T02:51:11;100477.63;;;7.25;100.00
64844;BME280;51310;52.198;5.422;2022-12-24T02:53:39;100476.56;;;7.23;100.00
64844;BME280;51310;52.198;5.422;2022-12-24T02:59:32;100484.63;;;7.10;100.00
64844;BME280;51310;52.198;5.422;2022-12-24T03:02:58;100493.19;;;7.02;100.00
64844;BME280;51310;52.198;5.422;2022-12-24T03:05:58;100491.75;;;6.97;100.00
64844;BME280;51310;52.198;5.422;2022-12-24T03:11:23;100485.09;;;6.90;100.00
64844;BME280;51310;52.198;5.422;2022-12-24T03:13:50;100490.50;;;6.85;100.00
64844;BME280;51310;52.198;5.422;2022-12-24T03:16:25;100498.72;;;6.82;100.00
64844;BME280;51310;52.198;5.422;2022-12-24T03:18:54;100496.94;;;6.81;100.00
64844;BME280;51310;52.198;5.422;2022-12-24T03:21:34;100494.97;;;6.78;100.00
64844;BME280;51310;52.198;5.422;2022-12-24T03:24:03;100497.19;;;6.75;100.00
64844;BME280;51310;52.198;5.422;2022-12-24T03:26:31;100498.66;;;6.73;100.00
64844;BME280;51310;52.198;5.422;2022-12-24T03:28:58;100502.63;;;6.78;100.00
64844;BME280;51310;52.198;5.422;2022-12-24T03:31:24;100505.91;;;6.77;100.00
64844;BME280;51310;52.198;5.422;2022-12-24T03:33:50;100519.47;;;6.76;100.00
64844;BME280;51310;52.198;5.422;2022-12-24T03:36:17;100509.81;;;6.74;100.00
64844;BME280;51310;52.198;5.422;2022-12-24T03:38:43;100513.59;;;6.77;100.00
64844;BME280;51310;52.198;5.422;2022-12-24T03:41:10;100515.50;;;6.87;100.00
64844;BME280;51310;52.198;5.422;2022-12-24T03:43:36;100518.94;;;6.88;100.00
64844;BME280;51310;52.198;5.422;2022-12-24T03:46:06;100512.00;;;6.87;100.00
64844;BME280;51310;52.198;5.422;2022-12-24T03:48:34;100511.88;;;6.85;100.00
64844;BME280;51310;52.198;5.422;2022-12-24T03:51:01;100507.34;;;6.83;100.00
64844;BME280;51310;52.198;5.422;2022-12-24T03:53:28;100509.56;;;6.80;100.00
64844;BME280;51310;52.198;5.422;2022-12-24T03:55:53;100514.25;;;6.84;100.00
64844;BME280;51310;52.198;5.422;2022-12-24T03:58:19;100521.69;;;6.89;100.00
64844;BME280;51310;52.198;5.422;2022-12-24T04:00:45;100515.22;;;6.93;100.00
64844;BME280;51310;52.198;5.422;2022-12-24T04:03:11;100516.50;;;7.05;100.00
64844;BME280;51310;52.198;5.422;2022-12-24T04:05:37;100510.84;;;7.16;100.00
64844;BME280;51310;52.198;5.422;2022-12-24T04:08:03;100520.38;;;7.17;100.00
64844;BME280;51310;52.198;5.422;2022-12-24T04:10:29;100520.84;;;7.22;100.00
64844;BME280;51310;52.198;5.422;2022-12-24T04:12:54;100525.41;;;7.33;100.00
64844;BME280;51310;52.198;5.422;2022-12-24T04:15:20;100528.44;;;7.38;100.00
64844;BME280;51310;52.198;5.422;2022-12-24T04:17:46;100528.78;;;7.41;100.00
64844;BME280;51310;52.198;5.422;2022-12-24T04:20:12;100522.19;;;7.43;100.00
64844;BME280;51310;52.198;5.422;2022-12-24T04:22:38;100526.38;;;7.43;100.00
64844;BME280;51310;52.198;5.422;2022-12-24T04:25:04;100533.16;;;7.42;100.00
64844;BME280;51310;52.198;5.422;2022-12-24T04:27:30;100532.56;;;7.45;100.00
64844;BME280;51310;52.198;5.422;2022-12-24T04:29:57;100536.34;;;7.48;100.00
64844;BME280;51310;52.198;5.422;2022-12-24T04:32:25;100543.59;;;7.52;100.00
64844;BME280;51310;52.198;5.422;2022-12-24T04:34:51;100545.75;;;7.56;100.00
64844;BME280;51310;52.198;5.422;2022-12-24T04:37:17;100546.03;;;7.59;100.00
64844;BME280;51310;52.198;5.422;2022-12-24T04:39:43;100551.63;;;7.64;100.00
64844;BME280;51310;52.198;5.422;2022-12-24T04:42:09;100558.47;;;7.72;100.00
64844;BME280;51310;52.198;5.422;2022-12-24T04:44:35;100563.78;;;7.83;100.00
64844;BME280;51310;52.198;5.422;2022-12-24T04:47:01;100560.34;;;7.82;100.00
64844;BME280;51310;52.198;5.422;2022-12-24T04:49:26;100557.63;;;7.89;100.00
64844;BME280;51310;52.198;5.422;2022-12-24T04:51:52;100557.47;;;7.88;100.00
64844;BME280;51310;52.198;5.422;2022-12-24T04:54:18;100553.41;;;7.90;100.00
64844;BME280;51310;52.198;5.422;2022-12-24T04:56:44;100545.94;;;8.09;100.00
64844;BME280;51310;52.198;5.422;2022-12-24T04:59:10;100555.09;;;7.98;100.00
64844;BME280;51310;52.198;5.422;2022-12-24T05:01:36;100553.88;;;7.94;100.00
64844;BME280;51310;52.198;5.422;2022-12-24T05:04:01;100554.53;;;8.09;100.00
64844;BME280;51310;52.198;5.422;2022-12-24T05:06:31;100555.72;;;7.95;100.00
64844;BME280;51310;52.198;5.422;2022-12-24T05:08:58;100562.81;;;8.07;100.00
64844;BME280;51310;52.198;5.422;2022-12-24T05:11:25;100562.19;;;8.00;100.00
64844;BME280;51310;52.198;5.422;2022-12-24T05:13:51;100562.34;;;8.02;100.00
64844;BME280;51310;52.198;5.422;2022-12-24T05:16:19;100555.13;;;8.07;100.00
64844;BME280;51310;52.198;5.422;2022-12-24T05:18:45;100552.41;;;8.05;100.00
64844;BME280;51310;52.198;5.422;2022-12-24T05:21:21;100557.84;;;7.99;100.00
64844;BME280;51310;52.198;5.422;2022-12-24T05:23:48;100555.56;;;8.02;100.00
64844;BME280;51310;52.198;5.422;2022-12-24T05:26:47;100557.22;;;8.02;100.00
64844;BME280;51310;52.198;5.422;2022-12-24T05:29:14;100563.25;;;8.02;100.00
64844;BME280;51310;52.198;5.422;2022-12-24T05:31:42;100565.56;;;8.08;100.00
64844;BME280;51310;52.198;5.422;2022-12-24T05:34:11;100563.59;;;8.06;100.00
64844;BME280;51310;52.198;5.422;2022-12-24T05:36:38;100563.13;;;8.10;100.00
64844;BME280;51310;52.198;5.422;2022-12-24T05:39:05;100568.84;;;8.07;100.00
64844;BME280;51310;52.198;5.422;2022-12-24T05:41:31;100568.13;;;8.08;100.00
64844;BME280;51310;52.198;5.422;2022-12-24T05:43:57;100577.44;;;8.08;100.00
64844;BME280;51310;52.198;5.422;2022-12-24T05:46:24;100577.00;;;8.12;100.00
64844;BME280;51310;52.198;5.422;2022-12-24T05:48:51;100574.31;;;8.10;100.00
64844;BME280;51310;52.198;5.422;2022-12-24T05:51:19;100572.03;;;8.13;100.00
64844;BME280;51310;52.198;5.422;2022-12-24T05:53:48;100571.13;;;8.13;100.00
64844;BME280;51310;52.198;5.422;2022-12-24T05:56:21;100580.78;;;8.15;100.00
64844;BME280;51310;52.198;5.422;2022-12-24T05:58:49;100574.94;;;8.16;100.00
64844;BME280;51310;52.198;5.422;2022-12-24T06:01:17;100572.81;;;8.12;100.00
64844;BME280;51310;52.198;5.422;2022-12-24T06:03:43;100571.13;;;8.13;100.00
64844;BME280;51310;52.198;5.422;2022-12-24T06:06:15;100587.75;;;8.16;100.00
64844;BME280;51310;52.198;5.422;2022-12-24T06:08:47;100593.63;;;8.15;100.00
64844;BME280;51310;52.198;5.422;2022-12-24T06:11:17;100587.16;;;8.19;100.00
64844;BME280;51310;52.198;5.422;2022-12-24T06:13:44;100588.66;;;8.17;100.00
64844;BME280;51310;52.198;5.422;2022-12-24T06:16:17;100585.75;;;8.14;100.00
64844;BME280;51310;52.198;5.422;2022-12-24T06:18:44;100593.41;;;8.05;100.00
64844;BME280;51310;52.198;5.422;2022-12-24T06:21:11;100589.53;;;8.09;100.00
64844;BME280;51310;52.198;5.422;2022-12-24T06:23:40;100599.47;;;8.06;100.00
64844;BME280;51310;52.198;5.422;2022-12-24T06:26:08;100607.59;;;8.01;100.00
64844;BME280;51310;52.198;5.422;2022-12-24T06:28:37;100608.50;;;8.02;100.00
64844;BME280;51310;52.198;5.422;2022-12-24T06:31:05;100596.56;;;8.02;100.00
64844;BME280;51310;52.198;5.422;2022-12-24T06:33:34;100607.47;;;8.09;100.00
64844;BME280;51310;52.198;5.422;2022-12-24T06:36:00;100614.09;;;8.07;100.00
64844;BME280;51310;52.198;5.422;2022-12-24T06:38:26;100614.38;;;8.10;100.00
64844;BME280;51310;52.198;5.422;2022-12-24T06:40:54;100615.44;;;8.12;100.00
64844;BME280;51310;52.198;5.422;2022-12-24T06:43:20;100618.78;;;8.11;100.00
64844;BME280;51310;52.198;5.422;2022-12-24T06:45:46;100617.44;;;8.14;100.00
64844;BME280;51310;52.198;5.422;2022-12-24T06:48:14;100618.50;;;8.16;100.00
64844;BME280;51310;52.198;5.422;2022-12-24T06:50:40;100626.34;;;8.18;100.00
64844;BME280;51310;52.198;5.422;2022-12-24T06:53:07;100632.69;;;8.21;100.00
64844;BME280;51310;52.198;5.422;2022-12-24T06:55:33;100636.97;;;8.30;100.00
64844;BME280;51310;52.198;5.422;2022-12-24T06:57:59;100638.28;;;8.26;100.00
64844;BME280;51310;52.198;5.422;2022-12-24T07:00:25;100634.06;;;8.27;100.00
64844;BME280;51310;52.198;5.422;2022-12-24T07:02:51;100638.31;;;8.35;100.00
64844;BME280;51310;52.198;5.422;2022-12-24T07:05:17;100636.81;;;8.37;100.00
64844;BME280;51310;52.198;5.422;2022-12-24T07:07:44;100642.56;;;8.34;100.00
64844;BME280;51310;52.198;5.422;2022-12-24T07:10:12;100647.50;;;8.33;100.00
64844;BME280;51310;52.198;5.422;2022-12-24T07:12:39;100646.00;;;8.35;100.00
64844;BME280;51310;52.198;5.422;2022-12-24T07:15:06;100641.34;;;8.39;100.00
64844;BME280;51310;52.198;5.422;2022-12-24T07:17:32;100650.06;;;8.33;100.00
64844;BME280;51310;52.198;5.422;2022-12-24T07:19:58;100656.88;;;8.32;100.00
64844;BME280;51310;52.198;5.422;2022-12-24T07:22:24;100657.13;;;8.27;100.00
64844;BME280;51310;52.198;5.422;2022-12-24T07:24:50;100653.25;;;8.30;100.00
64844;BME280;51310;52.198;5.422;2022-12-24T07:27:16;100657.91;;;8.26;100.00
64844;BME280;51310;52.198;5.422;2022-12-24T07:29:42;100653.22;;;8.21;100.00
64844;BME280;51310;52.198;5.422;2022-12-24T07:32:08;100663.72;;;8.16;100.00
64844;BME280;51310;52.198;5.422;2022-12-24T07:34:34;100661.13;;;8.07;100.00
64844;BME280;51310;52.198;5.422;2022-12-24T07:37:00;100672.28;;;8.08;100.00
64844;BME280;51310;52.198;5.422;2022-12-24T07:39:26;100674.31;;;8.19;100.00
64844;BME280;51310;52.198;5.422;2022-12-24T07:41:52;100690.91;;;8.22;100.00
64844;BME280;51310;52.198;5.422;2022-12-24T07:44:18;100691.06;;;8.24;100.00
64844;BME280;51310;52.198;5.422;2022-12-24T07:46:44;100700.09;;;8.20;100.00
64844;BME280;51310;52.198;5.422;2022-12-24T07:49:10;100711.28;;;8.21;100.00
64844;BME280;51310;52.198;5.422;2022-12-24T07:51:36;100717.78;;;8.26;100.00
64844;BME280;51310;52.198;5.422;2022-12-24T07:54:02;100717.50;;;8.32;100.00
64844;BME280;51310;52.198;5.422;2022-12-24T07:56:32;100727.13;;;8.26;100.00
64844;BME280;51310;52.198;5.422;2022-12-24T07:58:59;100734.22;;;8.28;100.00
64844;BME280;51310;52.198;5.422;2022-12-24T08:01:25;100741.31;;;8.31;100.00
64844;BME280;51310;52.198;5.422;2022-12-24T08:03:51;100741.31;;;8.31;100.00
64844;BME280;51310;52.198;5.422;2022-12-24T08:06:20;100741.16;;;8.29;100.00
64844;BME280;51310;52.198;5.422;2022-12-24T08:08:46;100748.13;;;8.30;100.00
64844;BME280;51310;52.198;5.422;2022-12-24T08:11:12;100753.97;;;8.29;100.00
64844;BME280;51310;52.198;5.422;2022-12-24T08:13:39;100760.03;;;8.30;100.00
64844;BME280;51310;52.198;5.422;2022-12-24T08:16:05;100766.78;;;8.29;100.00
64844;BME280;51310;52.198;5.422;2022-12-24T08:18:31;100765.94;;;8.37;100.00
64844;BME280;51310;52.198;5.422;2022-12-24T08:20:58;100763.66;;;8.32;100.00
64844;BME280;51310;52.198;5.422;2022-12-24T08:23:24;100764.41;;;8.31;100.00
64844;BME280;51310;52.198;5.422;2022-12-24T08:25:50;100772.25;;;8.32;100.00
64844;BME280;51310;52.198;5.422;2022-12-24T08:28:18;100769.94;;;8.27;100.00
64844;BME280;51310;52.198;5.422;2022-12-24T08:30:48;100781.44;;;8.30;100.00
64844;BME280;51310;52.198;5.422;2022-12-24T08:33:15;100793.66;;;8.33;100.00
64844;BME280;51310;52.198;5.422;2022-12-24T08:35:51;100787.31;;;8.45;100.00
64844;BME280;51310;52.198;5.422;2022-12-24T08:38:19;100784.25;;;8.40;100.00
64844;BME280;51310;52.198;5.422;2022-12-24T08:40:46;100787.59;;;8.48;100.00
64844;BME280;51310;52.198;5.422;2022-12-24T08:43:18;100796.50;;;8.43;100.00
64844;BME280;51310;52.198;5.422;2022-12-24T08:45:46;100799.09;;;8.52;100.00
64844;BME280;51310;52.198;5.422;2022-12-24T08:48:13;100795.16;;;8.47;100.00
64844;BME280;51310;52.198;5.422;2022-12-24T08:50:41;100808.59;;;8.53;100.00
64844;BME280;51310;52.198;5.422;2022-12-24T08:53:09;100807.31;;;8.65;100.00
64844;BME280;51310;52.198;5.422;2022-12-24T08:55:35;100809.16;;;8.66;100.00
64844;BME280;51310;52.198;5.422;2022-12-24T08:58:01;100813.47;;;8.58;100.00
64844;BME280;51310;52.198;5.422;2022-12-24T09:00:30;100812.66;;;8.51;100.00
64844;BME280;51310;52.198;5.422;2022-12-24T09:02:56;100812.72;;;8.59;100.00
64844;BME280;51310;52.198;5.422;2022-12-24T09:05:22;100822.06;;;8.59;100.00
64844;BME280;51310;52.198;5.422;2022-12-24T09:07:48;100824.03;;;8.61;100.00
64844;BME280;51310;52.198;5.422;2022-12-24T09:10:14;100839.47;;;8.70;100.00
64844;BME280;51310;52.198;5.422;2022-12-24T09:12:41;100836.91;;;8.70;100.00
64844;BME280;51310;52.198;5.422;2022-12-24T09:15:08;100844.81;;;8.80;100.00
64844;BME280;51310;52.198;5.422;2022-12-24T09:17:35;100841.94;;;8.77;100.00
64844;BME280;51310;52.198;5.422;2022-12-24T09:20:02;100845.59;;;8.79;100.00
64844;BME280;51310;52.198;5.422;2022-12-24T09:22:28;100850.88;;;8.90;100.00
64844;BME280;51310;52.198;5.422;2022-12-24T09:24:54;100853.94;;;8.86;100.00
64844;BME280;51310;52.198;5.422;2022-12-24T09:27:20;100867.06;;;8.89;100.00
64844;BME280;51310;52.198;5.422;2022-12-24T09:29:46;100873.25;;;8.91;100.00
64844;BME280;51310;52.198;5.422;2022-12-24T09:32:13;100869.63;;;8.89;100.00
64844;BME280;51310;52.198;5.422;2022-12-24T09:34:39;100874.63;;;8.96;100.00
64844;BME280;51310;52.198;5.422;2022-12-24T09:37:04;100865.44;;;8.98;100.00
64844;BME280;51310;52.198;5.422;2022-12-24T09:39:30;100872.84;;;8.95;100.00
64844;BME280;51310;52.198;5.422;2022-12-24T09:42:31;100869.63;;;8.89;100.00
64844;BME280;51310;52.198;5.422;2022-12-24T09:45:17;100880.66;;;8.88;100.00
64844;BME280;51310;52.198;5.422;2022-12-24T09:48:00;100877.75;;;8.85;100.00
64844;BME280;51310;52.198;5.422;2022-12-24T09:51:34;100892.84;;;8.81;100.00
64844;BME280;51310;52.198;5.422;2022-12-24T09:54:12;100890.09;;;8.80;100.00
64844;BME280;51310;52.198;5.422;2022-12-24T09:56:44;100888.03;;;8.85;100.00
64844;BME280;51310;52.198;5.422;2022-12-24T09:59:20;100884.34;;;8.74;100.00
64844;BME280;51310;52.198;5.422;2022-12-24T10:01:50;100880.09;;;8.74;100.00
64844;BME280;51310;52.198;5.422;2022-12-24T10:04:27;100892.50;;;8.78;100.00
64844;BME280;51310;52.198;5.422;2022-12-24T10:10:51;100892.47;;;8.94;100.00
64844;BME280;51310;52.198;5.422;2022-12-24T10:16:33;100896.47;;;9.17;100.00
64844;BME280;51310;52.198;5.422;2022-12-24T10:19:21;100901.19;;;9.21;100.00
64844;BME280;51310;52.198;5.422;2022-12-24T10:27:45;100897.97;;;9.48;100.00
64844;BME280;51310;52.198;5.422;2022-12-24T10:30:21;100904.34;;;9.60;100.00
64844;BME280;51310;52.198;5.422;2022-12-24T10:32:53;100899.66;;;9.65;100.00
64844;BME280;51310;52.198;5.422;2022-12-24T10:35:28;100904.69;;;9.72;100.00
64844;BME280;51310;52.198;5.422;2022-12-24T10:37:57;100899.53;;;9.72;100.00
64844;BME280;51310;52.198;5.422;2022-12-24T10:43:18;100909.50;;;9.69;100.00
64844;BME280;51310;52.198;5.422;2022-12-24T10:46:35;100918.28;;;9.80;100.00
64844;BME280;51310;52.198;5.422;2022-12-24T10:49:02;100913.59;;;9.84;100.00
64844;BME280;51310;52.198;5.422;2022-12-24T10:52:16;100916.59;;;9.72;100.00
64844;BME280;51310;52.198;5.422;2022-12-24T10:55:32;100914.38;;;9.83;100.00
64844;BME280;51310;52.198;5.422;2022-12-24T10:58:05;100918.44;;;9.81;100.00
64844;BME280;51310;52.198;5.422;2022-12-24T11:00:38;100915.88;;;9.81;100.00
64844;BME280;51310;52.198;5.422;2022-12-24T11:05:38;100921.63;;;9.79;100.00
64844;BME280;51310;52.198;5.422;2022-12-24T11:10:43;100935.66;;;9.74;100.00
64844;BME280;51310;52.198;5.422;2022-12-24T11:13:28;100923.88;;;9.76;100.00
64844;BME280;51310;52.198;5.422;2022-12-24T11:16:13;100925.81;;;9.70;100.00
64844;BME280;51310;52.198;5.422;2022-12-24T11:18:52;100922.50;;;9.62;100.00
64844;BME280;51310;52.198;5.422;2022-12-24T11:21:29;100918.88;;;9.69;100.00
64844;BME280;51310;52.198;5.422;2022-12-24T11:26:41;100927.94;;;9.74;100.00
64844;BME280;51310;52.198;5.422;2022-12-24T11:29:27;100930.06;;;9.78;100.00
64844;BME280;51310;52.198;5.422;2022-12-24T11:32:19;100935.06;;;9.68;100.00
64844;BME280;51310;52.198;5.422;2022-12-24T11:34:47;100931.25;;;9.64;100.00
64844;BME280;51310;52.198;5.422;2022-12-24T11:37:16;100930.78;;;9.51;100.00
64844;BME280;51310;52.198;5.422;2022-12-24T11:39:59;100939.22;;;9.50;100.00
64844;BME280;51310;52.198;5.422;2022-12-24T11:42:36;100942.50;;;9.40;100.00
64844;BME280;51310;52.198;5.422;2022-12-24T11:45:25;100946.88;;;9.41;100.00
64844;BME280;51310;52.198;5.422;2022-12-24T11:47:54;100938.72;;;9.36;100.00
64844;BME280;51310;52.198;5.422;2022-12-24T11:58:27;100954.94;;;9.19;100.00
64844;BME280;51310;52.198;5.422;2022-12-24T12:01:21;100958.22;;;9.10;100.00
64844;BME280;51310;52.198;5.422;2022-12-24T12:03:56;100954.53;;;9.23;100.00
64844;BME280;51310;52.198;5.422;2022-12-24T12:06:44;100952.38;;;9.19;100.00
64844;BME280;51310;52.198;5.422;2022-12-24T12:09:43;100958.91;;;9.24;100.00
64844;BME280;51310;52.198;5.422;2022-12-24T12:12:18;100958.75;;;9.23;100.00
64844;BME280;51310;52.198;5.422;2022-12-24T12:14:54;100971.00;;;9.26;100.00
64844;BME280;51310;52.198;5.422;2022-12-24T12:17:43;100962.06;;;9.22;100.00
64844;BME280;51310;52.198;5.422;2022-12-24T12:20:49;100964.09;;;9.33;100.00
64844;BME280;51310;52.198;5.422;2022-12-24T12:23:37;100970.09;;;9.25;100.00
64844;BME280;51310;52.198;5.422;2022-12-24T12:26:22;100977.91;;;9.18;100.00
64844;BME280;51310;52.198;5.422;2022-12-24T12:29:09;100982.75;;;9.23;100.00
64844;BME280;51310;52.198;5.422;2022-12-24T12:31:53;100987.22;;;9.33;100.00
64844;BME280;51310;52.198;5.422;2022-12-24T12:34:47;100994.59;;;9.30;100.00
64844;BME280;51310;52.198;5.422;2022-12-24T12:37:42;100989.78;;;9.33;100.00
64844;BME280;51310;52.198;5.422;2022-12-24T12:40:15;100989.53;;;9.48;100.00
64844;BME280;51310;52.198;5.422;2022-12-24T12:49:06;101002.63;;;9.33;100.00
64844;BME280;51310;52.198;5.422;2022-12-24T12:54:55;101016.31;;;9.25;100.00
64844;BME280;51310;52.198;5.422;2022-12-24T12:57:34;101008.53;;;9.41;100.00
64844;BME280;51310;52.198;5.422;2022-12-24T13:00:13;101008.72;;;9.42;100.00
64844;BME280;51310;52.198;5.422;2022-12-24T13:10:02;101016.63;;;9.28;100.00
64844;BME280;51310;52.198;5.422;2022-12-24T13:13:05;101017.09;;;9.33;100.00
64844;BME280;51310;52.198;5.422;2022-12-24T13:21:34;101031.34;;;9.38;100.00
64844;BME280;51310;52.198;5.422;2022-12-24T13:24:17;101020.19;;;9.37;100.00
64844;BME280;51310;52.198;5.422;2022-12-24T13:37:50;101034.13;;;9.48;100.00
64844;BME280;51310;52.198;5.422;2022-12-24T13:40:24;101044.28;;;9.55;100.00
64844;BME280;51310;52.198;5.422;2022-12-24T13:48:01;101044.28;;;9.55;100.00
64844;BME280;51310;52.198;5.422;2022-12-24T13:50:49;101056.81;;;9.52;100.00
64844;BME280;51310;52.198;5.422;2022-12-24T13:53:41;101053.38;;;9.60;100.00
64844;BME280;51310;52.198;5.422;2022-12-24T13:56:24;101055.00;;;9.51;100.00
64844;BME280;51310;52.198;5.422;2022-12-24T13:59:09;101066.78;;;9.49;100.00
64844;BME280;51310;52.198;5.422;2022-12-24T14:01:42;101063.91;;;9.46;100.00
64844;BME280;51310;52.198;5.422;2022-12-24T14:04:26;101068.06;;;9.37;100.00
64844;BME280;51310;52.198;5.422;2022-12-24T14:07:00;101071.03;;;9.33;100.00
64844;BME280;51310;52.198;5.422;2022-12-24T14:09:29;101073.94;;;9.36;100.00
64844;BME280;51310;52.198;5.422;2022-12-24T14:14:33;101079.81;;;9.35;100.00
64844;BME280;51310;52.198;5.422;2022-12-24T14:19:48;101090.81;;;9.25;100.00
64844;BME280;51310;52.198;5.422;2022-12-24T14:22:41;101084.91;;;9.26;100.00
64844;BME280;51310;52.198;5.422;2022-12-24T14:25:18;101083.56;;;9.30;100.00
64844;BME280;51310;52.198;5.422;2022-12-24T14:28:04;101087.28;;;9.16;100.00
64844;BME280;51310;52.198;5.422;2022-12-24T14:30:32;101086.50;;;9.17;100.00
64844;BME280;51310;52.198;5.422;2022-12-24T14:32:58;101081.13;;;9.07;100.00
64844;BME280;51310;52.198;5.422;2022-12-24T14:35:28;101087.34;;;9.09;100.00
64844;BME280;51310;52.198;5.422;2022-12-24T14:38:15;101091.84;;;8.87;100.00
64844;BME280;51310;52.198;5.422;2022-12-24T14:40:56;101098.06;;;8.89;100.00
64844;BME280;51310;52.198;5.422;2022-12-24T14:44:01;101099.97;;;8.82;100.00